Seattle, WA (98199)

12:27 AM PDT on September 04, 2015 (GMT -0700)
Magnolia | | Change Station
CLOSE
Current Station
Personal Weather Station
Location: Seattle, WA
Elevation: 315 ft
Nearby Weather Stations

Elev 315 ft 47.64 °N, 122.39 °W | Updated 57 seconds ago

Mostly Cloudy
Mostly Cloudy
52.9 °F
Feels Like 52.9 °F
N
0.0
Wind Variable Wind from West
Gusts 0.0 mph

Today
High -- | Low -- °F
--% Chance of Precip.
Yesterday
High -- | Low -- °F
Precip. -- in
6:31 AM 7:44 PM
Waning Gibbous, 62% visible
Pressure 30.00 in
Visibility 10.0 miles
Clouds Mostly Cloudy 7000 ft
Dew Point 49 °F
Humidity 88%
Rainfall 0.00 in
Snow Depth Not available.
UV 0 out of 12
Pollen 1.50 out of 12
Air Quality Not available.
Flu Activity Not available.
METAR KBFI 040653Z 00000KT 10SM BKN070 14/09 A3000 RMK AO2 SLP158 T01390094
Pressure 30.00 in
Visibility 10.0 miles
Clouds Mostly Cloudy 7000 ft
Dew Point 49 °F
Humidity 88%
Rainfall 0.00 in
Snow Depth Not available.
UV 0 out of 12
Pollen 1.50 out of 12
Air Quality Not available.
Flu Activity Not available.
METAR KBFI 040653Z 00000KT 10SM BKN070 14/09 A3000 RMK AO2 SLP158 T01390094

10-Day Weather Forecast

×

Almanac

Astronomy

Sep. 04, 2015 Rise Set
Actual Time
Civil Twilight
Nautical Twilight
Astronomical Twilight
Moon
Length of Visible Light
Length of Day
Tomorrow will be .
, % of the Moon is Illuminated

Today's Extremes

State Highs State Lows

Community

WunderPhotos

Upload Photos

1,852,132 photos uploaded!

WunderBlogs® & News

Nearby

Air Quality

  Air Quality AQ Index Pollutant
Not available.

Snow Depth

Station Depth Elevation

Earthquake Activity

City Distance Mag. Time & Date
Minimum magnitude displayed is 2.5.

Coastal Water Temperatures

Place Temperature

Stations

Nearby Weather Stations

Station Location Temp. Windchill Dew Point Humidity Wind Precip. Elev Updated Type